createdAt,value
2023-05-13T00:02:32.551Z,12.70
2023-05-13T00:05:45.871Z,10.27
2023-05-13T00:08:59.024Z,10.20
2023-05-13T00:12:11.705Z,10.77
2023-05-13T00:15:24.116Z,11.18
2023-05-13T00:18:36.866Z,8.43
2023-05-13T00:21:49.390Z,9.15
2023-05-13T00:25:02.316Z,9.52
2023-05-13T00:28:15.190Z,13.13
2023-05-13T00:31:27.894Z,9.43
2023-05-13T00:34:40.294Z,9.95
2023-05-13T00:37:54.449Z,10.77
2023-05-13T00:41:06.837Z,9.85
2023-05-13T00:44:19.441Z,11.77
2023-05-13T00:47:32.307Z,12.13
2023-05-13T00:50:45.088Z,14.65
2023-05-13T00:53:58.860Z,13.95
2023-05-13T00:57:11.536Z,12.65
2023-05-13T01:00:23.936Z,16.48
2023-05-13T01:03:59.564Z,21.35
2023-05-13T01:07:30.382Z,24.87
2023-05-13T01:10:46.930Z,25.65
2023-05-13T01:14:06.974Z,24.30
2023-05-13T01:17:24.517Z,26.62
2023-05-13T01:20:38.278Z,24.65
2023-05-13T01:23:52.299Z,20.85
2023-05-13T01:27:07.875Z,22.20
2023-05-13T01:30:22.346Z,18.80
2023-05-13T01:33:34.996Z,17.17
2023-05-13T01:36:47.816Z,15.50
2023-05-13T01:40:01.138Z,13.48
2023-05-13T01:43:15.405Z,12.88
2023-05-13T01:46:27.814Z,12.85
2023-05-13T01:49:40.766Z,11.38
2023-05-13T01:52:53.457Z,14.30
2023-05-13T01:56:09.145Z,10.55
2023-05-13T01:59:21.788Z,9.63
2023-05-13T02:02:34.519Z,10.82
2023-05-13T02:05:48.669Z,9.55
2023-05-13T02:09:04.199Z,10.18
2023-05-13T02:12:16.930Z,10.20
2023-05-13T02:15:29.292Z,10.77
2023-05-13T02:18:41.957Z,10.50
2023-05-13T02:21:54.375Z,9.18
2023-05-13T02:25:07.600Z,10.20
2023-05-13T02:28:21.998Z,9.20
2023-05-13T02:31:34.714Z,9.13
2023-05-13T02:34:47.972Z,10.23
2023-05-13T02:38:01.700Z,8.48
2023-05-13T02:41:14.296Z,10.75
2023-05-13T02:44:27.348Z,10.13
2023-05-13T02:47:40.201Z,10.48
2023-05-13T02:50:53.096Z,9.73
2023-05-13T02:54:06.809Z,10.48
2023-05-13T02:57:19.550Z,12.35
2023-05-13T03:00:32.062Z,12.70
2023-05-13T03:03:44.878Z,12.00
2023-05-13T03:06:57.286Z,11.50
2023-05-13T03:10:10.524Z,8.98
2023-05-13T03:13:22.919Z,12.57
2023-05-13T03:16:35.584Z,10.80
2023-05-13T03:19:48.198Z,11.32
2023-05-13T03:23:00.883Z,9.82
2023-05-13T03:26:13.375Z,11.38
2023-05-13T03:29:26.172Z,10.93
2023-05-13T03:32:39.295Z,13.50
2023-05-13T03:35:52.333Z,10.73
2023-05-13T03:39:05.640Z,12.13
2023-05-13T03:42:18.881Z,10.07
2023-05-13T03:45:31.367Z,11.27
2023-05-13T03:48:44.962Z,10.85
2023-05-13T03:51:57.406Z,11.18
2023-05-13T03:55:10.166Z,11.75
2023-05-13T03:58:22.924Z,10.73
2023-05-13T04:01:36.057Z,12.05
2023-05-13T04:04:48.751Z,11.38
2023-05-13T04:08:01.188Z,12.40
2023-05-13T04:11:13.837Z,10.65
2023-05-13T04:14:26.263Z,12.13
2023-05-13T04:17:40.815Z,11.65
2023-05-13T04:20:53.255Z,14.82
2023-05-13T04:24:06.894Z,12.25
2023-05-13T04:27:19.263Z,11.18
2023-05-13T04:30:32.784Z,11.52
2023-05-13T04:33:45.368Z,13.45
2023-05-13T04:36:58.504Z,10.55
2023-05-13T04:40:11.352Z,11.60
2023-05-13T04:43:24.106Z,11.80
2023-05-13T04:46:40.473Z,11.45
2023-05-13T04:49:53.453Z,12.40
2023-05-13T04:53:06.260Z,12.25
2023-05-13T04:56:19.100Z,11.18
2023-05-13T04:59:31.668Z,13.00
2023-05-13T05:02:44.369Z,12.27
2023-05-13T05:05:56.814Z,12.30
2023-05-13T05:09:09.750Z,12.88
2023-05-13T05:12:22.772Z,10.48
2023-05-13T05:15:36.071Z,12.77
2023-05-13T05:18:49.569Z,11.98
2023-05-13T05:22:03.199Z,13.88
2023-05-13T05:25:15.852Z,11.70
2023-05-13T05:28:28.608Z,13.85
2023-05-13T05:31:41.795Z,11.90
2023-05-13T05:34:55.157Z,12.50
2023-05-13T05:38:07.925Z,12.73
2023-05-13T05:41:22.156Z,11.50
2023-05-13T05:44:34.687Z,12.13
2023-05-13T05:47:48.372Z,11.10
2023-05-13T05:51:02.367Z,13.07
2023-05-13T05:54:15.134Z,10.75
2023-05-13T05:57:27.849Z,9.57
2023-05-13T06:00:40.582Z,9.73
2023-05-13T06:03:54.891Z,10.73
2023-05-13T06:07:08.302Z,11.00
2023-05-13T06:10:21.297Z,12.30
2023-05-13T06:13:33.969Z,10.38
2023-05-13T06:16:46.756Z,9.50
2023-05-13T06:20:01.232Z,8.35
2023-05-13T06:23:15.088Z,8.98
2023-05-13T06:26:27.531Z,10.18
2023-05-13T06:29:40.210Z,10.68
2023-05-13T06:33:01.727Z,8.75
2023-05-13T06:36:15.690Z,7.68
2023-05-13T06:39:28.122Z,8.95
2023-05-13T06:42:41.740Z,7.55
2023-05-13T06:45:57.822Z,7.90
2023-05-13T06:49:11.783Z,7.32
2023-05-13T06:52:24.168Z,6.87
2023-05-13T06:55:41.719Z,7.47
2023-05-13T06:58:54.301Z,6.78
2023-05-13T07:02:09.766Z,7.37
2023-05-13T07:05:22.333Z,8.25
2023-05-13T07:08:34.990Z,7.70
2023-05-13T07:11:47.431Z,8.25
2023-05-13T07:15:00.234Z,6.80
2023-05-13T07:18:12.690Z,7.15
2023-05-13T07:21:25.812Z,6.28
2023-05-13T07:24:39.221Z,5.75
2023-05-13T07:27:51.872Z,8.20
2023-05-13T07:31:07.283Z,8.82
2023-05-13T07:34:19.991Z,7.45
2023-05-13T07:37:32.413Z,7.10
2023-05-13T07:40:45.101Z,8.10
2023-05-13T07:43:57.468Z,6.90
2023-05-13T07:47:10.184Z,7.90
2023-05-13T07:50:22.575Z,7.57
2023-05-13T07:53:36.717Z,7.45
2023-05-13T07:56:49.255Z,11.12
2023-05-13T08:00:02.052Z,10.02
2023-05-13T08:03:14.592Z,7.95
2023-05-13T08:06:27.349Z,7.18
2023-05-13T08:09:39.782Z,7.05
2023-05-13T08:12:57.594Z,7.93
2023-05-13T08:16:10.088Z,6.53
2023-05-13T08:19:22.782Z,7.25
2023-05-13T08:22:35.158Z,7.00
2023-05-13T08:25:47.788Z,6.40
2023-05-13T08:29:00.422Z,8.00
2023-05-13T08:32:13.109Z,6.95
2023-05-13T08:35:26.209Z,8.93
2023-05-13T08:38:38.971Z,6.95
2023-05-13T08:41:51.898Z,6.95
2023-05-13T08:45:07.791Z,6.20
2023-05-13T08:48:20.223Z,6.47
2023-05-13T08:51:33.660Z,7.55
2023-05-13T08:54:46.018Z,6.90
2023-05-13T08:57:58.662Z,7.18
2023-05-13T09:01:11.057Z,7.10
2023-05-13T09:04:23.752Z,7.80
2023-05-13T09:07:36.900Z,8.07
2023-05-13T09:10:49.759Z,7.00
2023-05-13T09:14:03.594Z,5.07
2023-05-13T09:17:16.228Z,9.32
2023-05-13T09:20:28.864Z,6.78
2023-05-13T09:23:41.506Z,6.70
2023-05-13T09:26:53.981Z,9.15
2023-05-13T09:30:10.646Z,6.82
2023-05-13T09:33:23.142Z,7.95
2023-05-13T09:36:35.797Z,6.62
2023-05-13T09:39:48.149Z,6.97
2023-05-13T09:43:00.784Z,8.63
2023-05-13T09:46:13.132Z,7.68
2023-05-13T09:49:28.544Z,6.90
2023-05-13T09:52:40.894Z,8.02
2023-05-13T09:55:54.797Z,7.20
2023-05-13T09:59:07.205Z,8.77
2023-05-13T10:02:19.917Z,11.73
2023-05-13T10:05:32.865Z,8.20
2023-05-13T10:08:48.320Z,10.15
2023-05-13T10:12:00.992Z,13.88
2023-05-13T10:15:13.385Z,7.60
2023-05-13T10:18:26.312Z,9.25
2023-05-13T10:21:38.767Z,9.75
2023-05-13T10:24:51.421Z,7.78
2023-05-13T10:28:04.836Z,9.43
2023-05-13T10:31:17.765Z,7.68
2023-05-13T10:34:31.444Z,7.55
2023-05-13T10:38:03.031Z,10.00
2023-05-13T10:41:26.895Z,9.18
2023-05-13T10:44:39.515Z,7.50
2023-05-13T10:47:51.965Z,12.18
2023-05-13T10:51:11.406Z,8.73
2023-05-13T10:54:24.936Z,11.18
2023-05-13T10:57:37.849Z,8.27
2023-05-13T11:00:51.148Z,10.23
2023-05-13T11:04:04.989Z,7.45
2023-05-13T11:07:17.590Z,11.45
2023-05-13T11:10:31.801Z,8.63
2023-05-13T11:13:44.192Z,10.02
2023-05-13T11:17:04.441Z,9.05
2023-05-13T11:20:18.370Z,9.70
2023-05-13T11:23:30.971Z,11.40
2023-05-13T11:26:46.948Z,11.02
2023-05-13T11:29:59.575Z,9.43
2023-05-13T11:33:12.773Z,12.73
2023-05-13T11:36:29.997Z,9.80
2023-05-13T11:39:42.483Z,9.90
2023-05-13T11:42:55.566Z,10.98
2023-05-13T11:46:08.012Z,16.62
2023-05-13T11:49:37.658Z,8.07
2023-05-13T11:52:54.372Z,8.30
2023-05-13T11:56:11.010Z,9.60
2023-05-13T11:59:23.851Z,9.25
2023-05-13T12:02:40.683Z,9.98
2023-05-13T12:06:03.089Z,9.85
2023-05-13T12:09:15.590Z,9.95
2023-05-13T12:12:29.252Z,8.93
2023-05-13T12:15:41.693Z,9.35
2023-05-13T12:19:04.348Z,9.55
2023-05-13T12:22:16.670Z,8.52
2023-05-13T12:25:35.922Z,10.40
2023-05-13T12:28:48.452Z,8.32
2023-05-13T12:32:05.407Z,9.95
2023-05-13T12:35:17.934Z,10.68
2023-05-13T12:38:30.628Z,8.82
2023-05-13T12:41:43.834Z,7.28
2023-05-13T12:44:56.878Z,9.07
2023-05-13T12:48:09.578Z,9.98
2023-05-13T12:51:22.713Z,9.88
2023-05-13T12:54:35.826Z,7.72
2023-05-13T12:57:59.730Z,8.35
2023-05-13T13:01:12.187Z,10.93
2023-05-13T13:04:25.014Z,8.27
2023-05-13T13:07:38.187Z,9.07
2023-05-13T13:10:51.069Z,8.40
2023-05-13T13:14:03.494Z,7.82
2023-05-13T13:17:16.391Z,11.48
2023-05-13T13:20:28.781Z,8.60
2023-05-13T13:23:41.495Z,7.87
2023-05-13T13:26:54.511Z,9.75
2023-05-13T13:30:08.138Z,8.95
2023-05-13T13:33:21.074Z,8.45
2023-05-13T13:36:33.852Z,7.05
2023-05-13T13:39:46.208Z,8.38
2023-05-13T13:42:58.892Z,9.27
2023-05-13T13:46:11.325Z,9.77
2023-05-13T13:49:25.099Z,14.93
2023-05-13T13:52:37.488Z,11.73
2023-05-13T13:55:50.170Z,9.05
2023-05-13T13:59:02.504Z,10.25
2023-05-13T14:02:15.182Z,10.48
2023-05-13T14:05:28.159Z,8.32
2023-05-13T14:08:40.480Z,9.13
2023-05-13T14:11:53.802Z,10.43
2023-05-13T14:15:06.869Z,10.98
2023-05-13T14:18:19.554Z,9.40
2023-05-13T14:21:32.480Z,9.70
2023-05-13T14:24:45.203Z,9.05
2023-05-13T14:27:57.532Z,9.48
2023-05-13T14:31:10.395Z,11.18
2023-05-13T14:34:23.762Z,9.27
2023-05-13T14:37:36.445Z,9.48
2023-05-13T14:40:48.804Z,8.80
2023-05-13T14:44:01.668Z,10.45
2023-05-13T14:47:14.096Z,9.52
2023-05-13T14:50:26.813Z,9.13
2023-05-13T14:53:39.731Z,8.00
2023-05-13T14:56:52.801Z,8.07
2023-05-13T15:00:05.777Z,10.45
2023-05-13T15:03:18.568Z,9.75
2023-05-13T15:06:30.972Z,11.98
2023-05-13T15:09:44.152Z,11.85
2023-05-13T15:12:56.722Z,11.20
2023-05-13T15:16:09.394Z,10.82
2023-05-13T15:19:21.756Z,9.68
2023-05-13T15:22:34.496Z,10.30
2023-05-13T15:25:47.088Z,11.57
2023-05-13T15:28:59.945Z,12.18
2023-05-13T15:32:12.347Z,9.82
2023-05-13T15:35:25.028Z,10.05
2023-05-13T15:38:39.871Z,10.88
2023-05-13T15:41:52.716Z,11.73
2023-05-13T15:45:05.572Z,20.52
2023-05-13T15:48:18.283Z,24.83
2023-05-13T15:51:30.598Z,36.22
2023-05-13T15:54:43.332Z,39.90
2023-05-13T15:57:55.767Z,14.80
2023-05-13T16:01:08.415Z,13.82
2023-05-13T16:04:21.159Z,12.00
2023-05-13T16:07:33.510Z,11.27
2023-05-13T16:10:47.176Z,10.35
2023-05-13T16:13:59.524Z,12.07
2023-05-13T16:17:12.877Z,14.50
2023-05-13T16:20:25.512Z,11.90
2023-05-13T16:23:38.283Z,12.15
2023-05-13T16:26:51.771Z,11.00
2023-05-13T16:30:05.532Z,11.60
2023-05-13T16:33:17.931Z,13.20
2023-05-13T16:36:30.703Z,13.23
2023-05-13T16:39:43.131Z,12.55
2023-05-13T16:42:59.289Z,16.10
2023-05-13T16:46:15.275Z,18.27
2023-05-13T16:49:28.085Z,12.98
2023-05-13T16:52:40.523Z,12.05
2023-05-13T16:55:53.646Z,10.48
2023-05-13T16:59:08.660Z,10.73
2023-05-13T17:02:21.382Z,10.25
2023-05-13T17:05:36.365Z,10.95
2023-05-13T17:08:48.972Z,11.68
2023-05-13T17:12:01.419Z,12.93
2023-05-13T17:15:14.071Z,10.35
2023-05-13T17:18:26.622Z,10.25
2023-05-13T17:21:40.887Z,11.02
2023-05-13T17:24:53.231Z,12.20
2023-05-13T17:28:08.111Z,12.40
2023-05-13T17:31:20.515Z,13.57
2023-05-13T17:34:33.186Z,11.40
2023-05-13T17:37:45.572Z,14.18
2023-05-13T17:40:58.236Z,13.23
2023-05-13T17:44:10.685Z,13.90
2023-05-13T17:47:23.382Z,12.98
2023-05-13T17:50:35.773Z,13.00
2023-05-13T17:53:48.440Z,11.15
2023-05-13T17:57:00.821Z,11.68
2023-05-13T18:00:14.021Z,10.38
2023-05-13T18:03:26.867Z,12.23
2023-05-13T18:06:39.251Z,10.52
2023-05-13T18:09:51.873Z,11.45
2023-05-13T18:13:04.414Z,11.57
2023-05-13T18:16:19.481Z,11.10
2023-05-13T18:19:32.197Z,11.57
2023-05-13T18:22:44.805Z,11.60
2023-05-13T18:25:57.228Z,11.57
2023-05-13T18:29:09.948Z,10.23
2023-05-13T18:32:22.302Z,13.43
2023-05-13T18:35:34.941Z,11.25
2023-05-13T18:38:48.057Z,10.65
2023-05-13T18:42:00.954Z,11.18
2023-05-13T18:45:13.543Z,11.90
2023-05-13T18:48:26.193Z,13.05
2023-05-13T18:51:38.566Z,12.18
2023-05-13T18:54:51.236Z,11.70
2023-05-13T18:58:03.612Z,11.25
2023-05-13T19:01:16.274Z,10.93
2023-05-13T19:04:28.850Z,11.23
2023-05-13T19:07:41.624Z,11.48
2023-05-13T19:10:54.011Z,13.88
2023-05-13T19:14:06.945Z,11.38
2023-05-13T19:17:19.330Z,11.18
2023-05-13T19:20:32.025Z,13.07
2023-05-13T19:23:44.382Z,12.37
2023-05-13T19:26:57.047Z,10.48
2023-05-13T19:30:09.818Z,13.60
2023-05-13T19:33:22.531Z,11.50
2023-05-13T19:36:36.568Z,12.75
2023-05-13T19:39:49.246Z,11.20
2023-05-13T19:43:01.603Z,14.98
2023-05-13T19:46:14.295Z,12.93
2023-05-13T19:49:26.700Z,14.10
2023-05-13T19:52:43.708Z,14.60
2023-05-13T19:55:56.097Z,14.60
2023-05-13T19:59:08.762Z,14.07
2023-05-13T20:02:21.203Z,13.20
2023-05-13T20:05:34.896Z,12.43
2023-05-13T20:08:47.296Z,11.90
2023-05-13T20:12:00.422Z,13.95
2023-05-13T20:15:12.810Z,12.20
2023-05-13T20:18:25.768Z,11.63
2023-05-13T20:21:38.228Z,12.70
2023-05-13T20:24:51.106Z,11.60
2023-05-13T20:28:03.634Z,12.63
2023-05-13T20:31:18.041Z,11.93
2023-05-13T20:34:30.883Z,13.02
2023-05-13T20:37:43.562Z,11.73
2023-05-13T20:40:55.981Z,13.05
2023-05-13T20:44:08.648Z,11.95
2023-05-13T20:47:21.556Z,12.15
2023-05-13T20:50:34.237Z,10.60
2023-05-13T20:53:47.395Z,10.18
2023-05-13T20:57:02.947Z,14.15
2023-05-13T21:00:17.154Z,11.52
2023-05-13T21:03:29.891Z,12.25
2023-05-13T21:06:42.325Z,13.68
2023-05-13T21:09:54.992Z,11.63
2023-05-13T21:13:07.371Z,9.90
2023-05-13T21:16:20.046Z,11.23
2023-05-13T21:19:32.516Z,12.80
2023-05-13T21:22:45.329Z,10.80
2023-05-13T21:25:57.669Z,13.18
2023-05-13T21:29:10.286Z,10.10
2023-05-13T21:32:22.624Z,12.40
2023-05-13T21:35:35.373Z,12.23
2023-05-13T21:38:48.415Z,15.60
2023-05-13T21:42:01.156Z,12.55
2023-05-13T21:45:13.556Z,11.82
2023-05-13T21:48:26.368Z,14.10
2023-05-13T21:51:39.238Z,14.60
2023-05-13T21:54:52.585Z,15.05
2023-05-13T21:58:04.993Z,12.40
2023-05-13T22:01:18.196Z,12.37
2023-05-13T22:04:30.971Z,12.10
2023-05-13T22:07:43.397Z,12.50
2023-05-13T22:10:56.205Z,12.63
2023-05-13T22:14:08.696Z,12.57
2023-05-13T22:17:22.396Z,11.25
2023-05-13T22:20:34.936Z,13.40
2023-05-13T22:23:47.547Z,12.25
2023-05-13T22:27:00.323Z,11.27
2023-05-13T22:30:13.104Z,11.15
2023-05-13T22:33:25.682Z,14.55
2023-05-13T22:36:38.430Z,11.32
2023-05-13T22:39:51.114Z,11.95
2023-05-13T22:43:03.826Z,11.85
2023-05-13T22:46:16.256Z,12.75
2023-05-13T22:49:28.948Z,14.60
2023-05-13T22:52:41.286Z,11.63
2023-05-13T22:55:53.937Z,12.15
2023-05-13T22:59:06.273Z,11.55
2023-05-13T23:02:18.937Z,12.60
2023-05-13T23:05:31.319Z,13.60
2023-05-13T23:08:43.951Z,13.23
2023-05-13T23:11:57.619Z,11.30
2023-05-13T23:15:11.778Z,11.75
2023-05-13T23:18:24.964Z,10.95
2023-05-13T23:21:37.602Z,10.38
2023-05-13T23:24:49.966Z,12.27
2023-05-13T23:28:05.129Z,11.55
2023-05-13T23:31:17.528Z,15.02
2023-05-13T23:34:30.170Z,13.25
2023-05-13T23:37:42.564Z,12.65
2023-05-13T23:40:55.227Z,12.95
2023-05-13T23:44:07.616Z,11.65
2023-05-13T23:47:20.272Z,11.00
2023-05-13T23:50:32.851Z,13.05
2023-05-13T23:53:45.499Z,13.10
2023-05-13T23:56:57.904Z,12.57
